Time;durP1;ratioP1;P1;durP2;ratioP2;P2;SDS_P1;SDS_P2;PMS_P1;PMS_P2;Temp;Humidity;BMP_temperature;BMP_pressure;BME280_temperature;BME280_humidity;BME280_pressure;Samples;Min_cycle;Max_cycle;Signal;HPM_P1;HPM_P2
2023/09/29 04:06:36;;;;;;;;;11.00;10.67;;;;;;;;6293796;39;5001253;-55
2023/09/29 04:12:42;;;;;;;;;10.67;10.67;;;;;;;;6490433;39;9008;-58
2023/09/29 04:18:44;;;;;;;;;16.33;14.33;;;;;;;;6490888;31;8889;-57
2023/09/29 07:11:09;;;;;;;;;17.00;16.50;;;;;;;;6490999;46;9028;-65
2023/09/29 07:17:14;;;;;;;;;18.33;18.33;;;;;;;;6488672;46;8923;-65
2023/09/29 07:23:25;;;;;;;;;21.00;19.33;;;;;;;;6490355;46;9091;-65
2023/09/29 07:29:29;;;;;;;;;22.50;18.75;;;;;;;;6489552;31;9126;-64
2023/09/29 07:35:38;;;;;;;;;18.00;18.00;;;;;;;;6489427;39;9778;-66
2023/09/29 07:41:41;;;;;;;;;21.50;20.00;;;;;;;;6488973;39;8895;-65
2023/09/29 07:47:48;;;;;;;;;21.75;20.25;;;;;;;;6490852;31;8919;-64
2023/09/29 07:53:53;;;;;;;;;24.75;21.25;;;;;;;;6490866;46;8930;-63
2023/09/29 08:00:08;;;;;;;;;21.00;20.67;;;;;;;;6488780;39;8956;-65
2023/09/29 08:06:15;;;;;;;;;22.00;18.75;;;;;;;;6489623;39;9475;-64
2023/09/29 08:12:26;;;;;;;;;23.00;23.00;;;;;;;;6492040;31;8969;-64
2023/09/29 08:18:36;;;;;;;;;25.00;20.50;;;;;;;;6490194;39;8954;-65
2023/09/29 08:24:47;;;;;;;;;24.33;24.33;;;;;;;;6491027;39;9533;-65
2023/09/29 08:30:54;;;;;;;;;24.00;22.00;;;;;;;;6488372;46;8982;-65
2023/09/29 08:37:03;;;;;;;;;20.25;19.75;;;;;;;;6489818;31;8915;-65
2023/09/29 08:43:12;;;;;;;;;21.25;21.00;;;;;;;;6487576;39;9005;-65
2023/09/29 08:49:18;;;;;;;;;24.25;20.25;;;;;;;;6487816;39;8901;-65
2023/09/29 08:55:49;;;;;;;;;21.50;20.25;;;;;;;;6489008;47;8964;-64
2023/09/29 09:02:08;;;;;;;;;19.75;19.75;;;;;;;;6488158;39;9596;-66
2023/09/29 09:08:16;;;;;;;;;26.75;21.25;;;;;;;;6490839;31;8942;-64
2023/09/29 09:14:40;;;;;;;;;20.75;17.25;;;;;;;;6486594;39;9030;-64
2023/09/29 09:20:54;;;;;;;;;15.50;13.25;;;;;;;;6490203;31;8961;-64
2023/09/29 09:27:03;;;;;;;;;15.75;15.00;;;;;;;;6488751;39;8950;-63
2023/09/29 09:33:21;;;;;;;;;17.25;16.75;;;;;;;;6488561;39;9049;-64
2023/09/29 09:39:30;;;;;;;;;17.75;16.25;;;;;;;;6489264;46;8940;-65
2023/09/29 09:45:49;;;;;;;;;14.50;13.25;;;;;;;;6489422;39;9594;-64
2023/09/29 09:51:59;;;;;;;;;17.25;16.50;;;;;;;;6489270;46;8982;-64
2023/09/29 09:58:13;;;;;;;;;18.00;16.75;;;;;;;;6489648;39;8922;-65
2023/09/29 10:04:17;;;;;;;;;12.25;12.25;;;;;;;;6489241;31;9668;-63
2023/09/29 10:10:31;;;;;;;;;14.50;11.50;;;;;;;;6489705;31;8969;-64
2023/09/29 10:16:38;;;;;;;;;14.75;13.75;;;;;;;;6486946;39;8927;-64
2023/09/29 10:22:43;;;;;;;;;14.50;14.50;;;;;;;;6488765;31;9230;-64
2023/09/29 10:28:48;;;;;;;;;18.75;17.00;;;;;;;;6485588;39;9537;-64
2023/09/29 10:35:00;;;;;;;;;11.75;11.75;;;;;;;;6487920;39;9116;-66
2023/09/29 10:41:06;;;;;;;;;15.00;15.00;;;;;;;;6488406;39;9037;-66
2023/09/29 10:47:36;;;;;;;;;13.75;12.50;;;;;;;;6488140;31;9790;-63
2023/09/29 10:53:42;;;;;;;;;9.75;9.75;;;;;;;;6487587;39;8963;-65
2023/09/29 10:59:49;;;;;;;;;11.50;9.25;;;;;;;;6488879;39;8955;-66
2023/09/29 11:06:08;;;;;;;;;13.50;11.75;;;;;;;;6488348;39;8937;-64
2023/09/29 11:12:18;;;;;;;;;9.25;8.50;;;;;;;;6485817;31;9058;-66
2023/09/29 11:18:56;;;;;;;;;15.50;14.25;;;;;;;;6486954;39;8930;-64
2023/09/29 11:25:03;;;;;;;;;15.75;13.50;;;;;;;;6488367;39;9071;-66
2023/09/29 11:31:26;;;;;;;;;15.00;12.50;;;;;;;;6488648;39;8916;-66
2023/09/29 11:37:40;;;;;;;;;13.50;13.00;;;;;;;;6487874;46;8994;-67
2023/09/29 11:43:55;;;;;;;;;10.75;10.00;;;;;;;;6488321;39;9685;-64
2023/09/29 11:50:02;;;;;;;;;12.50;11.50;;;;;;;;6489618;39;9713;-65
2023/09/29 11:56:14;;;;;;;;;13.75;12.75;;;;;;;;6488680;39;8927;-66
2023/09/29 12:02:22;;;;;;;;;15.75;12.75;;;;;;;;6488434;39;8994;-65
2023/09/29 12:08:29;;;;;;;;;9.75;9.75;;;;;;;;6488483;39;9671;-61
2023/09/29 12:14:32;;;;;;;;;11.25;10.75;;;;;;;;6489098;46;8927;-63
2023/09/29 12:20:52;;;;;;;;;15.00;13.00;;;;;;;;6488882;46;8962;-62
2023/09/29 12:27:05;;;;;;;;;12.25;12.00;;;;;;;;6488519;39;9732;-61
2023/09/29 12:33:12;;;;;;;;;16.75;16.50;;;;;;;;6487177;46;8964;-60
2023/09/29 12:39:22;;;;;;;;;18.25;15.00;;;;;;;;6486244;31;8943;-61
2023/09/29 12:45:32;;;;;;;;;20.75;19.50;;;;;;;;6487044;39;9038;-61
2023/09/29 12:51:39;;;;;;;;;16.50;15.50;;;;;;;;6486391;39;9072;-62
2023/09/29 12:58:06;;;;;;;;;13.00;12.25;;;;;;;;6487791;31;9009;-64
2023/09/29 13:04:14;;;;;;;;;13.25;12.00;;;;;;;;6486449;47;8901;-61
2023/09/29 13:10:27;;;;;;;;;16.00;15.25;;;;;;;;6484827;39;8943;-62
2023/09/29 13:16:39;;;;;;;;;16.25;15.00;;;;;;;;6484793;47;9054;-62
2023/09/29 13:22:44;;;;;;;;;14.33;14.00;;;;;;;;6484591;39;8960;-62
2023/09/29 13:28:51;;;;;;;;;16.50;14.50;;;;;;;;6483817;31;9073;-61
2023/09/29 13:34:55;;;;;;;;;17.25;14.50;;;;;;;;6484782;39;8985;-61
2023/09/29 13:40:58;;;;;;;;;15.75;14.25;;;;;;;;6485597;39;8930;-61
2023/09/29 13:47:01;;;;;;;;;11.00;11.00;;;;;;;;6487138;39;8917;-62
2023/09/29 13:53:08;;;;;;;;;15.75;14.25;;;;;;;;6487838;47;8934;-61
2023/09/29 13:59:11;;;;;;;;;13.75;13.25;;;;;;;;6487357;39;8889;-62
2023/09/29 14:05:16;;;;;;;;;18.25;14.25;;;;;;;;6488362;39;8927;-63
2023/09/29 14:11:21;;;;;;;;;13.50;12.25;;;;;;;;6488512;39;8907;-63
2023/09/29 14:17:25;;;;;;;;;13.00;13.00;;;;;;;;6489963;31;8910;-61
2023/09/29 14:23:32;;;;;;;;;13.00;11.50;;;;;;;;6489311;39;8909;-59
2023/09/29 14:29:37;;;;;;;;;15.25;13.75;;;;;;;;6489077;46;8871;-61
2023/09/29 14:35:44;;;;;;;;;11.50;11.50;;;;;;;;6489752;31;8948;-61
2023/09/29 14:41:51;;;;;;;;;16.75;14.75;;;;;;;;6488792;39;8956;-62
2023/09/29 14:47:58;;;;;;;;;10.50;9.00;;;;;;;;6489172;39;8872;-60
2023/09/29 14:54:07;;;;;;;;;18.25;16.25;;;;;;;;6488694;39;9620;-61
2023/09/29 15:00:14;;;;;;;;;14.50;14.50;;;;;;;;6490127;31;9005;-62
2023/09/29 15:06:17;;;;;;;;;10.75;10.50;;;;;;;;6488439;39;8927;-61
2023/09/29 15:12:22;;;;;;;;;17.50;16.50;;;;;;;;6487855;31;9126;-60
2023/09/29 15:18:34;;;;;;;;;15.75;14.50;;;;;;;;6486487;46;8926;-62
2023/09/29 15:24:42;;;;;;;;;16.00;15.50;;;;;;;;6486105;39;8920;-61
2023/09/29 15:30:50;;;;;;;;;13.25;13.25;;;;;;;;6483980;31;9060;-61
2023/09/29 15:37:05;;;;;;;;;17.00;14.00;;;;;;;;6487287;39;9589;-62
2023/09/29 15:43:08;;;;;;;;;15.25;15.25;;;;;;;;6487846;39;8943;-62
2023/09/29 15:49:12;;;;;;;;;12.50;12.50;;;;;;;;6488935;39;8998;-61
2023/09/29 15:55:15;;;;;;;;;12.75;11.75;;;;;;;;6487494;39;8954;-60
2023/09/29 16:01:18;;;;;;;;;13.75;13.50;;;;;;;;6487457;46;9074;-61
2023/09/29 16:07:24;;;;;;;;;8.00;5.25;;;;;;;;6487631;31;9691;-61
2023/09/29 16:13:28;;;;;;;;;16.25;15.00;;;;;;;;6487920;31;8976;-62
2023/09/29 16:19:32;;;;;;;;;20.00;17.00;;;;;;;;6488291;39;9616;-62
2023/09/29 16:25:37;;;;;;;;;16.75;15.50;;;;;;;;6487260;46;8911;-62
